Terminal Aerodrome Forecast
Issued by NWS Houston/Galveston TX

Home | Current Version | Previous Version | Text Only | Print | Product List | Glossary On
Versions: 1 2 3 4 5 6 7 8 9 10 11 12 13 14 15 16 17 18 19 20 21 22 23 24 25 26 27 28 29 30 31 32 33 34 35 36 37 38 39 40 41 42 43 44 45 46 47 48 49 50
000
FTUS44 KHGX 282323
TAFHOU
TAF
KHOU 282323Z 2900/2924 05007KT P6SM SCT030 BKN100
      TEMPO 2900/2902 SHRA
     FM291000 04006KT P6SM SCT015 BKN150
     FM291500 07007KT P6SM VCSH FEW020 BKN150 PROB30 2916/2920 SHRA
      BKN025
     FM292300 08008KT P6SM SCT040 BKN120=

USA.gov is the U.S. government's official web portal to all federal, state and local government web resources and services.